Time;durP1;ratioP1;P1;durP2;ratioP2;P2;SDS_P1;SDS_P2;PMS_P1;PMS_P2;Temp;Humidity;BMP_temperature;BMP_pressure;BME280_temperature;BME280_humidity;BME280_pressure;Samples;Min_cycle;Max_cycle;Signal;HPM_P1;HPM_P2
2023/04/07 00:00:56;;;;;;;17.08;7.88;;;;;;;2.41;90.82;95484.69;4992041;28;20513;-77
2023/04/07 00:03:22;;;;;;;22.45;7.55;;;;;;;2.40;90.45;95493.53;4992219;28;20042;-77
2023/04/07 00:05:48;;;;;;;16.27;7.53;;;;;;;2.44;91.29;95489.44;4992424;28;20058;-77
2023/04/07 00:08:13;;;;;;;21.33;7.95;;;;;;;2.45;90.85;95485.84;4994180;28;20469;-76
2023/04/07 00:10:40;;;;;;;19.98;7.78;;;;;;;2.42;90.05;95491.50;4995526;28;20050;-76
2023/04/07 00:13:05;;;;;;;16.92;8.05;;;;;;;2.46;90.41;95497.84;4994825;28;20068;-78
2023/04/07 00:15:31;;;;;;;20.42;7.82;;;;;;;2.39;91.82;95497.13;4985743;28;20054;-76
2023/04/07 00:17:56;;;;;;;16.92;7.50;;;;;;;2.42;91.17;95497.47;4993105;28;20046;-76
2023/04/07 00:20:22;;;;;;;19.13;7.25;;;;;;;2.36;91.74;95495.75;4995135;28;20093;-77
2023/04/07 00:22:48;;;;;;;16.38;8.20;;;;;;;2.35;92.41;95481.16;4992327;28;20089;-76
2023/04/07 00:25:13;;;;;;;18.98;7.93;;;;;;;2.36;91.81;95482.75;4987823;28;20039;-76
2023/04/07 00:27:39;;;;;;;15.93;7.65;;;;;;;2.47;92.06;95489.03;4991421;28;20561;-76
2023/04/07 00:30:05;;;;;;;18.58;7.95;;;;;;;2.37;92.12;95484.34;4991907;28;20046;-76
2023/04/07 00:32:31;;;;;;;22.13;8.32;;;;;;;2.34;92.83;95483.97;4995364;28;20042;-77
2023/04/07 00:34:57;;;;;;;19.95;8.50;;;;;;;2.35;93.07;95485.56;4992628;28;20428;-77
2023/04/07 00:37:24;;;;;;;21.73;8.32;;;;;;;2.31;93.99;95487.03;4993445;28;20078;-77
2023/04/07 00:39:50;;;;;;;15.07;7.70;;;;;;;2.32;93.91;95488.63;4990658;28;20716;-77
2023/04/07 00:42:16;;;;;;;20.52;8.40;;;;;;;2.41;93.93;95485.50;4998687;28;20043;-77
2023/04/07 00:44:42;;;;;;;17.38;7.05;;;;;;;2.38;94.34;95475.53;4992348;28;20085;-77
2023/04/07 00:47:07;;;;;;;16.42;7.35;;;;;;;2.51;93.27;95477.19;4992110;28;20665;-77
2023/04/07 00:49:36;;;;;;;15.23;7.38;;;;;;;2.54;93.00;95474.16;4993086;28;20038;-77
2023/04/07 00:52:03;;;;;;;17.70;7.97;;;;;;;2.48;95.70;95464.63;4995877;28;20054;-77
2023/04/07 00:54:29;;;;;;;17.10;8.05;;;;;;;2.51;93.91;95469.38;4996387;28;20494;-77
2023/04/07 00:56:56;;;;;;;15.98;7.25;;;;;;;2.67;92.60;95469.78;5011412;28;20058;-77
2023/04/07 00:59:21;;;;;;;18.88;8.23;;;;;;;2.59;93.30;95469.09;4997571;28;20038;-77
2023/04/07 01:01:57;;;;;;;17.65;7.80;;;;;;;2.70;92.46;95459.78;5009026;28;20038;-77
2023/04/07 01:04:42;;;;;;;16.60;7.60;;;;;;;2.68;93.15;95463.59;4994885;28;20038;-77
2023/04/07 01:07:22;;;;;;;;;;;;;;;2.57;94.85;95462.53;4996030;28;20054;-77
2023/04/07 01:10:00;;;;;;;14.93;6.82;;;;;;;2.74;93.04;95457.50;5002646;28;19929;-77
2023/04/07 01:12:42;;;;;;;15.85;7.38;;;;;;;2.72;92.71;95465.53;4995172;28;20046;-77
2023/04/07 01:15:11;;;;;;;16.35;6.72;;;;;;;2.69;93.60;95454.78;4989240;28;20040;-77
2023/04/07 01:17:42;;;;;;;21.13;7.15;;;;;;;2.70;92.27;95456.38;4997900;28;20068;-77
2023/04/07 01:20:13;;;;;;;16.92;6.53;;;;;;;2.76;92.37;95460.69;4995512;28;20042;-77
2023/04/07 01:22:57;;;;;;;18.77;7.78;;;;;;;2.62;92.69;95454.09;4991406;28;20054;-77
2023/04/07 01:25:37;;;;;;;17.52;6.75;;;;;;;2.59;93.86;95450.91;4987961;28;20050;-77
2023/04/07 01:28:03;;;;;;;16.20;7.20;;;;;;;2.63;94.04;95450.47;4994182;28;20042;-77
2023/04/07 01:30:30;;;;;;;18.17;7.65;;;;;;;2.53;95.30;95457.00;4998490;28;20065;-77
2023/04/07 01:32:58;;;;;;;16.73;7.22;;;;;;;2.55;95.45;95449.75;4990638;28;20541;-77
2023/04/07 01:35:28;;;;;;;19.75;7.43;;;;;;;2.54;95.97;95453.38;4991094;28;20117;-77
2023/04/07 01:37:54;;;;;;;16.45;7.20;;;;;;;2.53;96.57;95451.78;5001390;28;20038;-77
2023/04/07 01:40:21;;;;;;;13.27;6.80;;;;;;;2.64;95.98;95452.06;4995415;28;20058;-77
2023/04/07 01:42:48;;;;;;;17.05;6.78;;;;;;;2.71;96.14;95443.16;4994118;28;20100;-77
2023/04/07 01:45:15;;;;;;;13.52;5.80;;;;;;;2.78;95.99;95453.47;4995282;28;20069;-77
2023/04/07 01:47:42;;;;;;;13.95;6.32;;;;;;;2.73;96.86;95440.31;4995266;28;20557;-77
2023/04/07 01:50:10;;;;;;;12.93;5.97;;;;;;;2.80;97.20;95441.03;4994564;28;20493;-77
2023/04/07 01:52:37;;;;;;;13.52;6.05;;;;;;;2.82;98.00;95444.22;4993827;28;20050;-78
2023/04/07 01:55:04;;;;;;;15.10;6.38;;;;;;;2.92;97.89;95439.25;4996164;28;20767;-77
2023/04/07 01:57:30;;;;;;;16.75;6.43;;;;;;;2.95;98.60;95443.22;4993490;28;20042;-77
2023/04/07 01:59:55;;;;;;;14.57;5.90;;;;;;;3.08;98.80;95439.63;4995045;28;20418;-77
2023/04/07 02:02:21;;;;;;;15.85;5.75;;;;;;;3.14;98.54;95441.34;4994487;28;20061;-77
2023/04/07 02:04:59;;;;;;;17.42;5.22;;;;;;;3.19;98.74;95438.88;4990893;28;20073;-77
2023/04/07 02:07:40;;;;;;;13.13;5.30;;;;;;;3.29;98.99;95433.91;4997379;28;20050;-77
2023/04/07 02:10:10;;;;;;;11.63;5.22;;;;;;;3.22;100.00;95433.22;4993954;28;20121;-77
2023/04/07 02:12:38;;;;;;;10.98;4.78;;;;;;;3.28;100.00;95427.13;4993562;28;20057;-77
2023/04/07 02:15:07;;;;;;;13.27;5.28;;;;;;;3.36;100.00;95433.00;4987367;28;20046;-77
2023/04/07 02:17:36;;;;;;;12.23;5.28;;;;;;;3.44;100.00;95433.44;4998220;28;20050;-77
2023/04/07 02:20:03;;;;;;;10.60;4.85;;;;;;;3.60;100.00;95424.19;4994521;28;20042;-77
2023/04/07 02:22:30;;;;;;;11.45;5.15;;;;;;;3.70;100.00;95436.63;4994692;28;20441;-77
2023/04/07 02:24:56;;;;;;;13.65;5.63;;;;;;;3.85;100.00;95430.97;4992210;28;20038;-77
2023/04/07 02:27:21;;;;;;;11.77;4.68;;;;;;;3.95;100.00;95425.97;4994036;28;20060;-77
2023/04/07 02:29:47;;;;;;;10.38;5.22;;;;;;;3.94;100.00;95419.16;4993977;28;20038;-77
2023/04/07 02:32:12;;;;;;;11.50;5.00;;;;;;;4.02;100.00;95419.84;5007730;28;20486;-77
2023/04/07 02:34:38;;;;;;;11.45;5.43;;;;;;;4.01;100.00;95418.25;4990866;28;20376;-76
2023/04/07 02:37:03;;;;;;;18.92;5.90;;;;;;;4.06;100.00;95420.97;5002215;28;20125;-77
2023/04/07 02:39:29;;;;;;;11.50;5.47;;;;;;;4.09;100.00;95430.91;4986754;28;20415;-76
2023/04/07 02:41:54;;;;;;;12.75;5.10;;;;;;;4.09;100.00;95431.69;4990250;28;20042;-77
2023/04/07 02:44:20;;;;;;;15.80;5.70;;;;;;;4.04;100.00;95438.63;4994185;28;20046;-76
2023/04/07 02:46:46;;;;;;;11.60;5.20;;;;;;;4.09;100.00;95441.34;4991553;28;20046;-75
2023/04/07 02:49:11;;;;;;;14.20;5.70;;;;;;;4.09;100.00;95446.53;4986943;28;20499;-76
2023/04/07 02:51:37;;;;;;;8.75;4.53;;;;;;;4.02;100.00;95435.47;4988475;28;20061;-76
2023/04/07 02:54:02;;;;;;;15.05;5.00;;;;;;;3.96;100.00;95443.16;4988774;28;20073;-76
2023/04/07 02:56:28;;;;;;;14.30;5.20;;;;;;;3.99;100.00;95437.50;4991328;28;20069;-76
2023/04/07 02:58:53;;;;;;;13.40;5.32;;;;;;;3.93;100.00;95437.63;4991057;28;20069;-76
2023/04/07 03:01:19;;;;;;;13.40;5.63;;;;;;;3.93;100.00;95438.41;4989947;28;20073;-77
2023/04/07 03:03:46;;;;;;;13.43;5.53;;;;;;;3.96;100.00;95432.75;4991695;28;20046;-77
2023/04/07 03:06:12;;;;;;;11.95;5.85;;;;;;;3.93;100.00;95433.19;4978276;28;20042;-76
2023/04/07 03:08:38;;;;;;;9.88;4.93;;;;;;;3.86;100.00;95437.75;4990974;28;20089;-76
2023/04/07 03:11:03;;;;;;;12.02;5.30;;;;;;;3.91;100.00;95435.25;5001484;28;20057;-76
2023/04/07 03:13:30;;;;;;;13.00;5.10;;;;;;;3.74;100.00;95437.75;4994301;28;20097;-77
2023/04/07 03:15:56;;;;;;;13.27;5.13;;;;;;;3.69;100.00;95436.84;4989764;28;20038;-77
2023/04/07 03:18:22;;;;;;;18.08;6.28;;;;;;;3.63;100.00;95431.56;4992028;28;20045;-77
2023/04/07 03:20:48;;;;;;;16.73;5.68;;;;;;;3.70;100.00;95434.03;4992718;28;20622;-77
2023/04/07 03:23:13;;;;;;;14.45;5.28;;;;;;;3.59;100.00;95433.03;4990509;28;20034;-77
2023/04/07 03:25:40;;;;;;;13.20;5.85;;;;;;;3.58;100.00;95426.22;4991947;28;20156;-76
2023/04/07 03:28:06;;;;;;;14.10;6.28;;;;;;;3.50;100.00;95423.94;4992521;28;20081;-76
2023/04/07 03:30:31;;;;;;;11.80;5.60;;;;;;;3.46;100.00;95428.84;4994437;28;20034;-77
2023/04/07 03:32:57;;;;;;;13.18;5.65;;;;;;;3.41;100.00;95430.53;4990688;28;20093;-77
2023/04/07 03:35:23;;;;;;;14.75;6.20;;;;;;;3.33;100.00;95423.03;4992300;28;20517;-77
2023/04/07 03:37:48;;;;;;;13.07;5.95;;;;;;;3.39;100.00;95427.34;4989712;28;20038;-77
2023/04/07 03:40:14;;;;;;;17.40;6.53;;;;;;;3.32;100.00;95426.66;4993464;28;20042;-77
2023/04/07 03:42:39;;;;;;;13.63;6.13;;;;;;;3.20;100.00;95413.66;4990361;28;20053;-77
2023/04/07 03:45:05;;;;;;;15.05;6.72;;;;;;;3.10;100.00;95414.19;4991757;28;20065;-77
2023/04/07 03:47:31;;;;;;;16.75;7.00;;;;;;;3.13;100.00;95418.94;4991085;28;20066;-77
2023/04/07 03:49:57;;;;;;;17.73;7.40;;;;;;;3.05;100.00;95417.47;4995130;28;20034;-77
2023/04/07 03:52:22;;;;;;;15.95;6.80;;;;;;;2.98;100.00;95405.59;4990344;28;20061;-77
2023/04/07 03:54:48;;;;;;;15.77;6.15;;;;;;;3.03;100.00;95408.31;4991498;28;20486;-77
2023/04/07 03:57:13;;;;;;;13.98;6.07;;;;;;;3.00;100.00;95409.53;4986311;28;20042;-77
2023/04/07 03:59:39;;;;;;;15.05;6.93;;;;;;;3.05;100.00;95416.69;4986905;28;20038;-77
2023/04/07 04:02:04;;;;;;;13.73;6.15;;;;;;;3.11;100.00;95413.19;4991506;28;20049;-77
2023/04/07 04:04:30;;;;;;;15.20;6.68;;;;;;;3.06;100.00;95413.06;4989971;28;20060;-77
2023/04/07 04:06:55;;;;;;;14.75;6.50;;;;;;;3.03;100.00;95403.91;4989180;28;20521;-77
2023/04/07 04:09:21;;;;;;;15.57;6.65;;;;;;;2.89;100.00;95408.50;4995792;28;20526;-77
2023/04/07 04:11:46;;;;;;;18.02;6.72;;;;;;;3.04;100.00;95407.31;4990856;28;20034;-77
2023/04/07 04:14:12;;;;;;;14.15;7.00;;;;;;;2.93;100.00;95404.47;4989712;28;20105;-77
2023/04/07 04:16:37;;;;;;;14.25;6.75;;;;;;;2.85;100.00;95404.78;4997596;28;20046;-77
2023/04/07 04:19:03;;;;;;;18.65;7.15;;;;;;;2.87;100.00;95399.34;4989454;28;20039;-76
2023/04/07 04:21:29;;;;;;;17.23;6.80;;;;;;;2.90;100.00;95404.91;4989488;28;20580;-77
2023/04/07 04:23:54;;;;;;;19.63;6.88;;;;;;;2.87;100.00;95400.13;4994594;28;20050;-77
2023/04/07 04:26:24;;;;;;;20.05;6.82;;;;;;;2.87;100.00;95394.94;4986011;28;20387;-76
2023/04/07 04:28:50;;;;;;;14.68;6.85;;;;;;;2.82;100.00;95397.44;4987673;28;20045;-77
2023/04/07 04:31:16;;;;;;;15.20;6.50;;;;;;;2.74;100.00;95389.94;4991739;28;20034;-77
2023/04/07 04:33:41;;;;;;;16.27;7.65;;;;;;;2.77;100.00;95394.69;4995411;28;20061;-77
2023/04/07 04:36:07;;;;;;;19.45;7.30;;;;;;;2.72;100.00;95397.19;4990940;28;20049;-77
2023/04/07 04:38:33;;;;;;;15.80;7.28;;;;;;;2.72;100.00;95397.19;4993114;28;20089;-77
2023/04/07 04:40:58;;;;;;;16.17;6.85;;;;;;;2.75;100.00;95401.94;4991060;28;20101;-77
2023/04/07 04:43:24;;;;;;;14.75;6.75;;;;;;;2.76;100.00;95403.53;4992440;28;20062;-77
2023/04/07 04:45:49;;;;;;;20.02;7.15;;;;;;;2.70;100.00;95399.19;4994505;28;20042;-77
2023/04/07 04:48:16;;;;;;;16.58;7.20;;;;;;;2.75;100.00;95401.94;4993679;28;20050;-77
2023/04/07 04:50:42;;;;;;;18.15;7.32;;;;;;;2.75;100.00;95407.13;4994527;28;20035;-76
2023/04/07 04:53:09;;;;;;;19.75;7.10;;;;;;;2.70;100.00;95394.00;4991933;28;20653;-76
2023/04/07 04:55:34;;;;;;;18.13;6.97;;;;;;;2.75;100.00;95401.94;4993830;28;20038;-76
2023/04/07 04:58:01;;;;;;;17.35;6.95;;;;;;;2.84;100.00;95395.38;4994274;28;20042;-76
2023/04/07 05:00:26;;;;;;;16.35;6.82;;;;;;;2.79;100.00;95392.69;4990831;28;20502;-76
2023/04/07 05:02:52;;;;;;;20.17;7.03;;;;;;;2.73;100.00;95385.75;4996303;28;20077;-76
2023/04/07 05:05:17;;;;;;;21.45;7.80;;;;;;;2.75;100.00;95391.53;4991797;28;20034;-76
2023/04/07 05:07:43;;;;;;;18.88;8.15;;;;;;;2.83;100.00;95399.03;4993153;28;20049;-75
2023/04/07 05:10:08;;;;;;;16.45;7.43;;;;;;;2.78;100.00;95381.47;4994504;28;20042;-75
2023/04/07 05:12:35;;;;;;;20.50;7.78;;;;;;;2.77;100.00;95389.50;4989117;28;20039;-76
2023/04/07 05:15:00;;;;;;;16.08;7.45;;;;;;;2.85;100.00;95391.78;4991701;28;20046;-75
2023/04/07 05:17:26;;;;;;;17.60;7.32;;;;;;;2.75;100.00;95386.34;4990288;28;20427;-72
2023/04/07 05:19:51;;;;;;;15.10;7.07;;;;;;;2.75;100.00;95391.53;4989909;28;20101;-76
2023/04/07 05:22:17;;;;;;;15.45;6.63;;;;;;;2.80;100.00;95383.84;4991017;28;20042;-76
2023/04/07 05:24:42;;;;;;;19.80;7.63;;;;;;;2.77;100.00;95384.28;4991399;28;20030;-76
2023/04/07 05:27:08;;;;;;;20.52;8.63;;;;;;;2.76;100.00;95385.34;4991052;28;20096;-76
2023/04/07 05:29:33;;;;;;;17.45;7.38;;;;;;;2.78;100.00;95391.09;4986861;28;20034;-75
2023/04/07 05:32:00;;;;;;;20.40;7.95;;;;;;;2.71;100.00;95380.00;4995658;28;20053;-76
2023/04/07 05:34:26;;;;;;;16.67;6.97;;;;;;;2.89;100.00;95381.75;4987123;28;20041;-78
2023/04/07 05:36:52;;;;;;;20.88;8.05;;;;;;;2.75;100.00;95387.13;4993165;28;20039;-76
2023/04/07 05:39:17;;;;;;;20.70;6.97;;;;;;;2.77;100.00;95390.31;4991874;28;20522;-76
2023/04/07 05:41:43;;;;;;;16.85;7.70;;;;;;;2.82;100.00;95388.84;4991428;28;20093;-77
2023/04/07 05:44:08;;;;;;;17.92;8.23;;;;;;;2.75;100.00;95386.34;4991508;28;20045;-77
2023/04/07 05:46:34;;;;;;;16.27;7.68;;;;;;;2.93;100.00;95383.66;4996822;28;20052;-76
2023/04/07 05:49:00;;;;;;;19.40;6.95;;;;;;;3.02;100.00;95385.94;4990729;28;20049;-76
2023/04/07 05:51:25;;;;;;;18.92;8.07;;;;;;;3.08;100.00;95391.03;4990524;28;20108;-76
2023/04/07 05:53:51;;;;;;;19.13;7.93;;;;;;;3.18;100.00;95395.66;4988494;28;20038;-76
2023/04/07 05:56:16;;;;;;;19.30;7.15;;;;;;;3.24;100.00;95389.56;4992229;28;20601;-77
2023/04/07 05:58:42;;;;;;;17.65;7.55;;;;;;;3.35;100.00;95379.38;4988076;28;20109;-77
2023/04/07 06:01:07;;;;;;;20.83;7.97;;;;;;;3.19;100.00;95381.66;4983968;28;20612;-76
2023/04/07 06:03:33;;;;;;;19.48;8.00;;;;;;;3.19;100.00;95373.84;4991902;28;20457;-77
2023/04/07 06:05:58;;;;;;;19.33;7.22;;;;;;;3.21;100.00;95384.81;4988564;28;20522;-77
2023/04/07 06:08:24;;;;;;;16.95;7.47;;;;;;;3.17;100.00;95373.28;5004565;28;20046;-76
2023/04/07 06:10:49;;;;;;;16.45;7.53;;;;;;;3.16;100.00;95376.91;4986492;28;20076;-76
2023/04/07 06:13:15;;;;;;;20.40;7.38;;;;;;;3.12;100.00;95375.78;4992584;28;20486;-76
2023/04/07 06:15:41;;;;;;;14.75;6.75;;;;;;;3.14;100.00;95376.34;4988486;28;20192;-76
2023/04/07 06:18:06;;;;;;;18.13;7.40;;;;;;;3.32;100.00;95364.22;4990402;28;20042;-76
2023/04/07 06:20:32;;;;;;;15.77;6.88;;;;;;;3.38;100.00;95368.56;4983977;28;20529;-76
2023/04/07 06:22:58;;;;;;;23.17;9.30;;;;;;;3.30;100.00;95367.06;4989491;28;20042;-76
2023/04/07 06:25:24;;;;;;;17.10;7.95;;;;;;;3.27;100.00;95370.91;4990606;28;20096;-76
2023/04/07 06:27:49;;;;;;;18.65;7.47;;;;;;;3.29;100.00;95361.09;4993618;28;20502;-77
2023/04/07 06:30:15;;;;;;;16.77;7.65;;;;;;;3.40;100.00;95361.28;4990357;28;20081;-78
2023/04/07 06:32:40;;;;;;;18.30;7.93;;;;;;;3.48;100.00;95353.16;4991442;28;20498;-76
2023/04/07 06:35:06;;;;;;;16.08;7.43;;;;;;;3.59;100.00;95348.94;4991028;28;20046;-76
2023/04/07 06:37:32;;;;;;;17.52;7.88;;;;;;;3.64;100.00;95342.03;4990747;28;20038;-75
2023/04/07 06:39:58;;;;;;;16.45;7.97;;;;;;;3.60;100.00;95348.72;4991672;28;20101;-77
2023/04/07 06:42:23;;;;;;;17.75;7.88;;;;;;;3.51;100.00;95347.50;4994944;28;20045;-76
2023/04/07 06:44:49;;;;;;;16.73;7.93;;;;;;;3.81;100.00;95346.53;4989256;28;20410;-76
2023/04/07 06:47:14;;;;;;;16.83;7.20;;;;;;;3.79;100.00;95348.56;4991773;28;20054;-75
2023/04/07 06:49:40;;;;;;;25.33;7.68;;;;;;;3.80;100.00;95350.16;4992256;28;20157;-76
2023/04/07 06:52:05;;;;;;;19.92;7.85;;;;;;;3.75;100.00;95342.22;4990253;28;20043;-73
2023/04/07 06:54:31;;;;;;;16.83;7.60;;;;;;;3.91;100.00;95346.72;4992995;28;20038;-81
2023/04/07 06:56:57;;;;;;;19.58;7.65;;;;;;;4.04;100.00;95339.66;4992697;28;20049;-79
2023/04/07 06:59:24;;;;;;;16.02;7.43;;;;;;;4.14;100.00;95345.09;4992795;28;20069;-75
2023/04/07 07:01:49;;;;;;;20.23;8.07;;;;;;;4.32;100.00;95344.09;4988834;28;20074;-76
2023/04/07 07:04:15;;;;;;;18.52;8.07;;;;;;;4.27;100.00;95344.78;4989868;28;20494;-76
2023/04/07 07:06:40;;;;;;;21.58;8.80;;;;;;;4.46;100.00;95342.00;4992295;28;20085;-79
2023/04/07 07:09:06;;;;;;;20.48;8.63;;;;;;;4.54;100.00;95336.41;4998870;28;20034;-78
2023/04/07 07:11:31;;;;;;;22.52;8.82;;;;;;;4.62;100.00;95341.22;4992119;28;20391;-77
2023/04/07 07:13:57;;;;;;;17.58;8.18;;;;;;;4.73;100.00;95346.63;4989311;28;20114;-75
2023/04/07 07:16:25;;;;;;;22.67;9.15;;;;;;;5.10;100.00;95340.91;4995743;28;20049;-75
2023/04/07 07:18:51;;;;;;;18.45;8.68;;;;;;;5.03;100.00;95348.91;4989292;28;20030;-76
2023/04/07 07:21:17;;;;;;;18.58;8.07;;;;;;;4.87;100.00;95350.50;4990993;28;20097;-75
2023/04/07 07:23:43;;;;;;;15.77;7.18;;;;;;;5.10;100.00;95356.56;4993628;28;20676;-75
2023/04/07 07:26:09;;;;;;;18.45;8.57;;;;;;;5.37;100.00;95344.47;4989249;28;20041;-76
2023/04/07 07:28:35;;;;;;;16.52;8.32;;;;;;;5.42;100.00;95348.19;4991552;28;20053;-76
2023/04/07 07:31:00;;;;;;;17.48;7.00;;;;;;;5.44;100.00;95351.31;4989563;28;20039;-75
2023/04/07 07:33:26;;;;;;;16.00;8.00;;;;;;;5.47;100.00;95356.06;4990140;28;20041;-75
2023/04/07 07:35:51;;;;;;;15.45;7.75;;;;;;;5.43;100.00;95350.53;4989840;28;20502;-76
2023/04/07 07:38:17;;;;;;;17.92;7.72;;;;;;;5.65;100.00;95347.94;4988413;28;20042;-75
2023/04/07 07:40:42;;;;;;;16.45;7.75;;;;;;;5.61;100.00;95341.63;4991273;28;20034;-78
2023/04/07 07:43:08;;;;;;;15.20;7.20;;;;;;;5.95;100.00;95344.13;4986570;28;20066;-76
2023/04/07 07:45:33;;;;;;;14.40;7.13;;;;;;;5.85;100.00;95351.84;4996690;28;20061;-76
2023/04/07 07:47:59;;;;;;;14.40;6.90;;;;;;;6.09;100.00;95349.00;4991369;28;20128;-76
2023/04/07 07:50:25;;;;;;;16.77;7.22;;;;;;;5.78;100.00;95356.47;4988627;28;20042;-75
2023/04/07 07:52:50;;;;;;;16.95;7.20;;;;;;;6.02;100.00;95352.59;4989095;28;20050;-76
2023/04/07 07:55:16;;;;;;;16.70;6.82;;;;;;;5.68;100.00;95352.69;4989720;28;20049;-76
2023/04/07 07:57:41;;;;;;;11.63;6.25;;;;;;;5.86;100.00;95348.19;4987219;28;20494;-76
2023/04/07 08:00:07;;;;;;;14.95;6.32;;;;;;;5.94;100.00;95345.16;4989509;28;20038;-76
2023/04/07 08:02:35;;;;;;;20.92;8.18;;;;;;;5.96;100.00;95344.91;4992489;28;20050;-77
2023/04/07 08:05:00;;;;;;;13.75;7.00;;;;;;;5.99;100.00;95345.25;4995657;28;20039;-77
2023/04/07 08:07:26;;;;;;;14.45;7.22;;;;;;;5.91;100.00;95350.88;4997434;28;20125;-77
2023/04/07 08:09:52;;;;;;;15.05;7.25;;;;;;;5.74;100.00;95348.31;4992119;28;20065;-78
2023/04/07 08:12:18;;;;;;;17.25;7.68;;;;;;;5.96;100.00;95343.13;4989012;28;20039;-80
2023/04/07 08:14:43;;;;;;;15.65;6.57;;;;;;;5.88;100.00;95351.38;4988924;28;20089;-77
2023/04/07 08:17:09;;;;;;;13.10;6.35;;;;;;;5.92;100.00;95336.78;4991168;28;20038;-77
2023/04/07 08:19:35;;;;;;;15.07;7.53;;;;;;;6.12;100.00;95341.50;4991753;28;20039;-77
2023/04/07 08:22:01;;;;;;;17.48;6.97;;;;;;;6.24;100.00;95333.50;5009305;28;20092;-76
2023/04/07 08:24:27;;;;;;;17.67;7.53;;;;;;;6.36;100.00;95341.97;4993127;28;20042;-76
2023/04/07 08:26:53;;;;;;;17.85;7.13;;;;;;;6.49;100.00;95334.78;5002283;28;20100;-76
2023/04/07 08:29:19;;;;;;;17.10;8.43;;;;;;;6.46;100.00;95336.06;4999999;28;20035;-75
2023/04/07 08:31:44;;;;;;;19.40;7.88;;;;;;;6.60;100.00;95336.47;5002408;28;20486;-76
2023/04/07 08:34:10;;;;;;;17.65;7.75;;;;;;;6.37;100.00;95327.88;4988473;28;20454;-77
2023/04/07 08:36:35;;;;;;;17.55;7.35;;;;;;;6.76;100.00;95335.53;4995321;28;20038;-75
2023/04/07 08:39:04;;;;;;;14.13;6.88;;;;;;;6.87;100.00;95331.19;4997807;28;20038;-77
2023/04/07 08:41:36;;;;;;;16.27;6.95;;;;;;;6.85;100.00;95328.06;4994849;28;20050;-78
2023/04/07 08:44:03;;;;;;;18.35;7.90;;;;;;;6.93;100.00;95329.41;4994320;28;20046;-76
2023/04/07 08:46:29;;;;;;;14.10;6.90;;;;;;;7.07;100.00;95329.78;4994895;28;20116;-77
2023/04/07 08:48:56;;;;;;;14.02;7.88;;;;;;;7.25;100.00;95320.72;4991774;28;20546;-77
2023/04/07 08:51:32;;;;;;;14.43;7.00;;;;;;;7.46;100.00;95327.66;4989889;28;20088;-77
2023/04/07 08:54:11;;;;;;;15.52;7.55;;;;;;;7.62;100.00;95325.91;4994789;28;20033;-78
2023/04/07 08:56:41;;;;;;;17.10;7.43;;;;;;;7.80;100.00;95327.31;4993248;28;20042;-76
2023/04/07 08:59:09;;;;;;;14.30;7.35;;;;;;;7.75;100.00;95324.66;4990168;28;20039;-76
2023/04/07 09:01:35;;;;;;;14.23;7.38;;;;;;;7.50;100.00;95337.63;4989578;28;20122;-76
2023/04/07 09:04:06;;;;;;;16.52;8.23;;;;;;;7.67;100.00;95327.78;4998955;28;20046;-77
2023/04/07 09:06:35;;;;;;;14.23;7.47;;;;;;;7.86;100.00;95325.50;4991970;28;20044;-76
2023/04/07 09:09:01;;;;;;;16.70;6.90;;;;;;;7.58;100.00;95324.06;4993524;28;20042;-75
2023/04/07 09:11:28;;;;;;;14.48;7.53;;;;;;;7.70;100.00;95322.03;4990670;28;20097;-75
2023/04/07 09:13:54;;;;;;;13.75;6.55;;;;;;;7.80;100.00;95327.31;4989654;28;20049;-74
2023/04/07 09:16:21;;;;;;;16.10;7.82;;;;;;;7.90;100.00;95325.75;4991336;28;20042;-77
2023/04/07 09:18:46;;;;;;;15.38;6.60;;;;;;;8.09;100.00;95324.28;4993343;28;20045;-77
2023/04/07 09:21:12;;;;;;;13.57;7.30;;;;;;;8.11;98.03;95318.78;4994593;28;20038;-76
2023/04/07 09:23:39;;;;;;;17.65;7.47;;;;;;;8.21;100.00;95318.00;4991183;28;20111;-77
2023/04/07 09:26:17;;;;;;;13.57;7.15;;;;;;;8.09;100.00;95321.66;4994276;28;20046;-77
2023/04/07 09:28:44;;;;;;;16.25;6.75;;;;;;;8.17;100.00;95319.56;4992874;28;20042;-76
2023/04/07 09:31:10;;;;;;;17.38;7.75;;;;;;;8.02;99.60;95313.25;4992076;28;20049;-77
2023/04/07 09:33:35;;;;;;;14.73;7.22;;;;;;;8.00;98.48;95314.53;4993307;28;20042;-76
2023/04/07 09:36:06;;;;;;;15.00;7.93;;;;;;;8.49;98.23;95316.78;4989329;28;20494;-76
2023/04/07 09:38:37;;;;;;;13.77;6.97;;;;;;;8.42;96.45;95306.53;4998091;28;20076;-76
2023/04/07 09:41:08;;;;;;;14.80;7.10;;;;;;;8.65;94.97;95314.97;4992826;28;20050;-77
2023/04/07 09:43:36;;;;;;;12.88;6.95;;;;;;;8.95;87.49;95308.13;4998746;28;20045;-77
2023/04/07 09:46:16;;;;;;;14.75;7.10;;;;;;;8.75;92.79;95314.97;4995025;28;20043;-77
2023/04/07 09:48:45;;;;;;;14.32;6.63;;;;;;;9.28;93.03;95300.75;4992418;28;20113;-79
2023/04/07 09:51:14;;;;;;;14.60;7.38;;;;;;;9.61;87.60;95293.31;4995437;28;20038;-79
2023/04/07 09:53:43;;;;;;;11.50;6.15;;;;;;;10.05;81.75;95287.34;4986303;28;20536;-78
2023/04/07 09:56:12;;;;;;;15.55;6.72;;;;;;;9.66;77.94;95290.69;4997732;28;20560;-77
2023/04/07 09:58:39;;;;;;;17.10;7.95;;;;;;;9.42;84.95;95288.63;4995093;28;20113;-76
2023/04/07 10:01:09;;;;;;;16.27;6.97;;;;;;;9.05;88.27;95299.47;4994710;28;20042;-76
2023/04/07 10:03:36;;;;;;;12.95;6.75;;;;;;;8.92;86.40;95295.53;4991634;28;20517;-77
2023/04/07 10:06:03;;;;;;;14.65;7.28;;;;;;;9.01;80.96;95297.38;4994594;28;20047;-78
2023/04/07 10:08:36;;;;;;;11.75;6.82;;;;;;;8.84;78.59;95292.41;4998603;28;20070;-78
2023/04/07 10:11:04;;;;;;;14.07;7.00;;;;;;;9.16;82.32;95293.94;4995409;28;20035;-77
2023/04/07 10:13:31;;;;;;;14.45;7.20;;;;;;;9.52;78.37;95279.94;4994196;28;20039;-76
2023/04/07 10:15:58;;;;;;;11.27;6.63;;;;;;;9.88;77.16;95282.44;4991573;28;20514;-76
2023/04/07 10:18:31;;;;;;;13.32;6.70;;;;;;;10.01;74.19;95286.31;4991645;28;20069;-74
2023/04/07 10:21:02;;;;;;;16.00;6.47;;;;;;;9.98;74.89;95286.84;4997053;28;20062;-74
2023/04/07 10:23:49;;;;;;;14.02;6.72;;;;;;;9.54;77.71;95288.34;4992314;28;20049;-76
2023/04/07 10:26:18;;;;;;;11.35;6.63;;;;;;;9.41;76.81;95279.19;4992706;28;20543;-78
2023/04/07 10:28:47;;;;;;;15.02;7.20;;;;;;;9.33;75.54;95287.63;4991483;28;20058;-76
2023/04/07 10:31:13;;;;;;;12.80;6.78;;;;;;;9.42;75.55;95275.50;4992902;28;20050;-76
2023/04/07 10:33:44;;;;;;;11.95;6.70;;;;;;;10.49;66.98;95286.59;4992903;28;20042;-75
2023/04/07 10:36:11;;;;;;;12.15;6.88;;;;;;;11.96;63.41;95274.13;4998126;28;20138;-76
2023/04/07 10:38:36;;;;;;;13.50;7.00;;;;;;;12.17;63.35;95279.16;4996587;28;20509;-77
2023/04/07 10:41:32;;;;;;;12.05;6.50;;;;;;;11.54;64.51;95278.28;4998396;28;20434;-76
2023/04/07 10:43:57;;;;;;;12.85;6.82;;;;;;;11.05;66.40;95276.69;5012719;28;20125;-77
2023/04/07 10:46:23;;;;;;;12.73;6.70;;;;;;;11.95;62.60;95272.56;4989649;28;20038;-77
2023/04/07 10:49:08;;;;;;;12.13;6.53;;;;;;;12.54;56.48;95274.94;4989757;28;20465;-77
2023/04/07 10:51:34;;;;;;;13.15;7.18;;;;;;;13.69;54.71;95270.06;4988735;28;20034;-77
2023/04/07 10:54:15;;;;;;;12.38;6.50;;;;;;;13.17;57.04;95272.84;4990021;28;20042;-76
2023/04/07 10:57:03;;;;;;;11.43;6.82;;;;;;;11.83;62.75;95269.53;5008056;28;20038;-77
2023/04/07 10:59:29;;;;;;;11.35;7.03;;;;;;;11.21;63.51;95274.69;4993269;28;20640;-77
2023/04/07 11:02:21;;;;;;;11.57;6.97;;;;;;;12.43;61.92;95270.88;4992223;28;20093;-75
2023/04/07 11:04:47;;;;;;;11.07;6.68;;;;;;;11.78;60.58;95272.25;4986732;28;20068;-75
2023/04/07 11:07:15;;;;;;;11.65;6.50;;;;;;;11.73;62.54;95269.66;4991397;28;20053;-76
2023/04/07 11:09:41;;;;;;;11.57;6.63;;;;;;;11.54;63.99;95267.75;4992709;28;20046;-75
2023/04/07 11:12:07;;;;;;;12.13;7.13;;;;;;;11.85;59.81;95267.41;5016609;28;20038;-76
2023/04/07 11:14:36;;;;;;;11.85;6.80;;;;;;;11.74;60.32;95260.69;4993562;28;20048;-77
2023/04/07 11:17:02;;;;;;;10.52;7.03;;;;;;;11.45;63.52;95258.91;4992160;28;20049;-75
2023/04/07 11:19:30;;;;;;;13.05;6.82;;;;;;;11.73;59.32;95264.38;4998124;28;20041;-76
2023/04/07 11:22:15;;;;;;;15.10;7.28;;;;;;;11.67;61.45;95260.25;4991811;28;20039;-76
2023/04/07 11:24:41;;;;;;;12.20;6.45;;;;;;;11.23;62.81;95262.00;4982548;28;20421;-75
2023/04/07 11:28:20;;;;;;;13.00;6.65;;;;;;;11.43;60.22;95263.66;5010548;28;20085;-71